sensor_id;sensor_type;location;lat;lon;timestamp;P1;durP1;ratioP1;P2;durP2;ratioP2
2618;SDS011;1319;52.346;13.096;2022-07-03T00:00:15;8.77;;;7.87;;
2618;SDS011;1319;52.346;13.096;2022-07-03T00:02:41;12.07;;;8.10;;
2618;SDS011;1319;52.346;13.096;2022-07-03T00:05:06;12.50;;;8.00;;
2618;SDS011;1319;52.346;13.096;2022-07-03T00:07:31;23.10;;;9.67;;
2618;SDS011;1319;52.346;13.096;2022-07-03T00:09:56;13.60;;;8.57;;
2618;SDS011;1319;52.346;13.096;2022-07-03T00:12:22;12.63;;;8.30;;
2618;SDS011;1319;52.346;13.096;2022-07-03T00:14:47;14.97;;;9.30;;
2618;SDS011;1319;52.346;13.096;2022-07-03T00:17:13;16.80;;;9.07;;
2618;SDS011;1319;52.346;13.096;2022-07-03T00:19:39;18.30;;;9.70;;
2618;SDS011;1319;52.346;13.096;2022-07-03T00:22:04;17.03;;;8.60;;
2618;SDS011;1319;52.346;13.096;2022-07-03T00:27:15;11.87;;;8.73;;
2618;SDS011;1319;52.346;13.096;2022-07-03T00:29:41;10.50;;;8.13;;
2618;SDS011;1319;52.346;13.096;2022-07-03T00:32:06;14.20;;;9.03;;
2618;SDS011;1319;52.346;13.096;2022-07-03T00:34:33;9.83;;;8.30;;
2618;SDS011;1319;52.346;13.096;2022-07-03T00:36:58;11.33;;;8.23;;
2618;SDS011;1319;52.346;13.096;2022-07-03T00:39:25;10.53;;;8.83;;
2618;SDS011;1319;52.346;13.096;2022-07-03T00:41:59;13.20;;;8.50;;
2618;SDS011;1319;52.346;13.096;2022-07-03T00:44:24;9.10;;;8.20;;
2618;SDS011;1319;52.346;13.096;2022-07-03T00:46:50;12.17;;;8.73;;
2618;SDS011;1319;52.346;13.096;2022-07-03T00:49:17;8.83;;;8.00;;
2618;SDS011;1319;52.346;13.096;2022-07-03T00:51:43;9.90;;;8.90;;
2618;SDS011;1319;52.346;13.096;2022-07-03T00:54:10;11.33;;;8.60;;
2618;SDS011;1319;52.346;13.096;2022-07-03T00:56:39;12.03;;;8.80;;
2618;SDS011;1319;52.346;13.096;2022-07-03T00:59:06;10.10;;;9.00;;
2618;SDS011;1319;52.346;13.096;2022-07-03T01:01:32;11.23;;;8.93;;
2618;SDS011;1319;52.346;13.096;2022-07-03T01:06:35;12.67;;;9.00;;
2618;SDS011;1319;52.346;13.096;2022-07-03T01:09:04;9.97;;;8.80;;
2618;SDS011;1319;52.346;13.096;2022-07-03T01:11:51;9.70;;;8.80;;
2618;SDS011;1319;52.346;13.096;2022-07-03T01:17:02;13.03;;;8.90;;
2618;SDS011;1319;52.346;13.096;2022-07-03T01:26:46;9.30;;;8.43;;
2618;SDS011;1319;52.346;13.096;2022-07-03T01:32:15;9.40;;;8.43;;
2618;SDS011;1319;52.346;13.096;2022-07-03T01:34:42;11.97;;;9.07;;
2618;SDS011;1319;52.346;13.096;2022-07-03T01:37:08;11.17;;;8.57;;
2618;SDS011;1319;52.346;13.096;2022-07-03T01:39:34;9.17;;;8.27;;
2618;SDS011;1319;52.346;13.096;2022-07-03T01:42:00;11.50;;;9.47;;
2618;SDS011;1319;52.346;13.096;2022-07-03T01:44:27;9.93;;;8.87;;
2618;SDS011;1319;52.346;13.096;2022-07-03T01:46:53;11.17;;;8.60;;
2618;SDS011;1319;52.346;13.096;2022-07-03T01:49:21;9.40;;;8.30;;
2618;SDS011;1319;52.346;13.096;2022-07-03T01:51:49;11.37;;;9.40;;
2618;SDS011;1319;52.346;13.096;2022-07-03T01:54:15;9.37;;;8.30;;
2618;SDS011;1319;52.346;13.096;2022-07-03T01:56:41;10.83;;;8.90;;
2618;SDS011;1319;52.346;13.096;2022-07-03T01:59:09;9.70;;;8.80;;
2618;SDS011;1319;52.346;13.096;2022-07-03T02:01:41;11.17;;;8.67;;
2618;SDS011;1319;52.346;13.096;2022-07-03T02:04:32;10.83;;;9.27;;
2618;SDS011;1319;52.346;13.096;2022-07-03T02:07:02;12.60;;;9.53;;
2618;SDS011;1319;52.346;13.096;2022-07-03T02:09:40;17.17;;;9.40;;
2618;SDS011;1319;52.346;13.096;2022-07-03T02:12:09;11.97;;;9.03;;
2618;SDS011;1319;52.346;13.096;2022-07-03T02:14:36;10.17;;;9.13;;
2618;SDS011;1319;52.346;13.096;2022-07-03T02:17:11;13.47;;;9.23;;
2618;SDS011;1319;52.346;13.096;2022-07-03T02:19:41;12.23;;;8.97;;
2618;SDS011;1319;52.346;13.096;2022-07-03T02:22:08;12.33;;;9.50;;
2618;SDS011;1319;52.346;13.096;2022-07-03T02:24:38;11.50;;;9.57;;
2618;SDS011;1319;52.346;13.096;2022-07-03T02:27:06;12.67;;;9.77;;
2618;SDS011;1319;52.346;13.096;2022-07-03T02:29:54;13.23;;;9.90;;
2618;SDS011;1319;52.346;13.096;2022-07-03T02:32:20;11.10;;;9.90;;
2618;SDS011;1319;52.346;13.096;2022-07-03T02:35:04;11.23;;;9.73;;
2618;SDS011;1319;52.346;13.096;2022-07-03T02:37:33;11.20;;;9.97;;
2618;SDS011;1319;52.346;13.096;2022-07-03T02:40:03;11.40;;;10.20;;
2618;SDS011;1319;52.346;13.096;2022-07-03T02:42:30;12.53;;;10.07;;
2618;SDS011;1319;52.346;13.096;2022-07-03T02:44:58;12.20;;;10.93;;
2618;SDS011;1319;52.346;13.096;2022-07-03T02:47:30;12.33;;;9.77;;
2618;SDS011;1319;52.346;13.096;2022-07-03T02:53:07;11.27;;;10.13;;
2618;SDS011;1319;52.346;13.096;2022-07-03T02:58:44;13.97;;;10.53;;
2618;SDS011;1319;52.346;13.096;2022-07-03T03:00:43;11.57;;;10.13;;
2618;SDS011;1319;52.346;13.096;2022-07-03T03:03:13;12.90;;;9.97;;
2618;SDS011;1319;52.346;13.096;2022-07-03T03:05:46;15.60;;;10.77;;
2618;SDS011;1319;52.346;13.096;2022-07-03T03:08:14;12.33;;;9.87;;
2618;SDS011;1319;52.346;13.096;2022-07-03T03:10:40;11.73;;;10.00;;
2618;SDS011;1319;52.346;13.096;2022-07-03T03:13:09;11.77;;;10.30;;
2618;SDS011;1319;52.346;13.096;2022-07-03T03:15:36;12.50;;;10.57;;
2618;SDS011;1319;52.346;13.096;2022-07-03T03:18:05;13.60;;;10.33;;
2618;SDS011;1319;52.346;13.096;2022-07-03T03:20:33;13.03;;;10.17;;
2618;SDS011;1319;52.346;13.096;2022-07-03T03:25:23;12.30;;;10.57;;
2618;SDS011;1319;52.346;13.096;2022-07-03T03:27:49;13.43;;;10.27;;
2618;SDS011;1319;52.346;13.096;2022-07-03T03:30:14;12.30;;;10.53;;
2618;SDS011;1319;52.346;13.096;2022-07-03T03:32:40;12.60;;;10.70;;
2618;SDS011;1319;52.346;13.096;2022-07-03T03:35:05;17.50;;;10.23;;
2618;SDS011;1319;52.346;13.096;2022-07-03T03:37:31;13.37;;;10.67;;
2618;SDS011;1319;52.346;13.096;2022-07-03T03:39:56;12.77;;;10.30;;
2618;SDS011;1319;52.346;13.096;2022-07-03T03:42:22;11.83;;;9.83;;
2618;SDS011;1319;52.346;13.096;2022-07-03T03:44:47;14.20;;;10.50;;
2618;SDS011;1319;52.346;13.096;2022-07-03T03:47:12;11.10;;;10.00;;
2618;SDS011;1319;52.346;13.096;2022-07-03T03:49:38;13.53;;;10.87;;
2618;SDS011;1319;52.346;13.096;2022-07-03T03:52:03;12.80;;;10.60;;
2618;SDS011;1319;52.346;13.096;2022-07-03T03:54:28;12.30;;;10.60;;
2618;SDS011;1319;52.346;13.096;2022-07-03T03:56:54;12.13;;;10.53;;
2618;SDS011;1319;52.346;13.096;2022-07-03T03:59:19;13.60;;;10.37;;
2618;SDS011;1319;52.346;13.096;2022-07-03T04:01:44;12.07;;;10.53;;
2618;SDS011;1319;52.346;13.096;2022-07-03T04:04:11;11.50;;;10.30;;
2618;SDS011;1319;52.346;13.096;2022-07-03T04:06:37;10.77;;;9.67;;
2618;SDS011;1319;52.346;13.096;2022-07-03T04:09:02;11.93;;;10.27;;
2618;SDS011;1319;52.346;13.096;2022-07-03T04:11:27;11.47;;;10.30;;
2618;SDS011;1319;52.346;13.096;2022-07-03T04:13:52;11.83;;;9.97;;
2618;SDS011;1319;52.346;13.096;2022-07-03T04:16:18;15.10;;;10.23;;
2618;SDS011;1319;52.346;13.096;2022-07-03T04:18:43;13.57;;;10.67;;
2618;SDS011;1319;52.346;13.096;2022-07-03T04:21:08;12.87;;;10.83;;
2618;SDS011;1319;52.346;13.096;2022-07-03T04:23:33;13.73;;;10.43;;
2618;SDS011;1319;52.346;13.096;2022-07-03T04:26:02;12.03;;;10.53;;
2618;SDS011;1319;52.346;13.096;2022-07-03T04:28:27;12.37;;;10.70;;
2618;SDS011;1319;52.346;13.096;2022-07-03T04:30:53;12.60;;;11.00;;
2618;SDS011;1319;52.346;13.096;2022-07-03T04:33:18;12.90;;;10.87;;
2618;SDS011;1319;52.346;13.096;2022-07-03T04:35:43;11.80;;;10.57;;
2618;SDS011;1319;52.346;13.096;2022-07-03T04:38:08;12.40;;;11.03;;
2618;SDS011;1319;52.346;13.096;2022-07-03T04:40:33;13.93;;;11.57;;
2618;SDS011;1319;52.346;13.096;2022-07-03T04:42:59;13.90;;;11.57;;
2618;SDS011;1319;52.346;13.096;2022-07-03T04:45:24;12.93;;;11.37;;
2618;SDS011;1319;52.346;13.096;2022-07-03T04:47:49;15.40;;;11.97;;
2618;SDS011;1319;52.346;13.096;2022-07-03T04:50:14;13.60;;;11.23;;
2618;SDS011;1319;52.346;13.096;2022-07-03T04:52:40;13.10;;;11.03;;
2618;SDS011;1319;52.346;13.096;2022-07-03T04:55:05;16.57;;;11.20;;
2618;SDS011;1319;52.346;13.096;2022-07-03T04:57:32;14.00;;;11.37;;
2618;SDS011;1319;52.346;13.096;2022-07-03T04:59:57;13.07;;;11.27;;
2618;SDS011;1319;52.346;13.096;2022-07-03T05:02:22;13.93;;;10.93;;
2618;SDS011;1319;52.346;13.096;2022-07-03T05:04:48;11.10;;;9.43;;
2618;SDS011;1319;52.346;13.096;2022-07-03T05:07:13;11.17;;;9.60;;
2618;SDS011;1319;52.346;13.096;2022-07-03T05:09:38;11.50;;;9.67;;
2618;SDS011;1319;52.346;13.096;2022-07-03T05:12:03;10.80;;;9.70;;
2618;SDS011;1319;52.346;13.096;2022-07-03T05:14:29;13.47;;;9.53;;
2618;SDS011;1319;52.346;13.096;2022-07-03T05:16:54;11.60;;;8.83;;
2618;SDS011;1319;52.346;13.096;2022-07-03T05:19:19;8.57;;;7.77;;
2618;SDS011;1319;52.346;13.096;2022-07-03T05:21:44;8.27;;;7.47;;
2618;SDS011;1319;52.346;13.096;2022-07-03T05:24:10;11.37;;;8.00;;
2618;SDS011;1319;52.346;13.096;2022-07-03T05:26:35;8.57;;;7.83;;
2618;SDS011;1319;52.346;13.096;2022-07-03T05:29:00;9.23;;;7.40;;
2618;SDS011;1319;52.346;13.096;2022-07-03T05:31:25;8.30;;;7.33;;
2618;SDS011;1319;52.346;13.096;2022-07-03T05:33:50;9.03;;;7.30;;
2618;SDS011;1319;52.346;13.096;2022-07-03T05:36:16;7.83;;;7.10;;
2618;SDS011;1319;52.346;13.096;2022-07-03T05:38:41;7.90;;;7.10;;
2618;SDS011;1319;52.346;13.096;2022-07-03T05:41:25;8.93;;;6.53;;
2618;SDS011;1319;52.346;13.096;2022-07-03T05:43:50;7.40;;;6.73;;
2618;SDS011;1319;52.346;13.096;2022-07-03T05:46:15;7.90;;;7.10;;
2618;SDS011;1319;52.346;13.096;2022-07-03T05:48:40;7.33;;;6.63;;
2618;SDS011;1319;52.346;13.096;2022-07-03T05:51:06;7.40;;;6.67;;
2618;SDS011;1319;52.346;13.096;2022-07-03T05:53:31;11.27;;;6.80;;
2618;SDS011;1319;52.346;13.096;2022-07-03T05:55:57;9.07;;;6.20;;
2618;SDS011;1319;52.346;13.096;2022-07-03T05:58:22;6.30;;;5.80;;
2618;SDS011;1319;52.346;13.096;2022-07-03T06:00:48;6.60;;;6.00;;
2618;SDS011;1319;52.346;13.096;2022-07-03T06:03:13;5.83;;;5.33;;
2618;SDS011;1319;52.346;13.096;2022-07-03T06:05:38;6.17;;;5.67;;
2618;SDS011;1319;52.346;13.096;2022-07-03T06:08:03;7.63;;;5.27;;
2618;SDS011;1319;52.346;13.096;2022-07-03T06:10:29;5.93;;;5.43;;
2618;SDS011;1319;52.346;13.096;2022-07-03T06:12:54;5.73;;;5.23;;
2618;SDS011;1319;52.346;13.096;2022-07-03T06:15:19;6.13;;;4.70;;
2618;SDS011;1319;52.346;13.096;2022-07-03T06:17:45;6.57;;;4.97;;
2618;SDS011;1319;52.346;13.096;2022-07-03T06:20:10;8.63;;;5.17;;
2618;SDS011;1319;52.346;13.096;2022-07-03T06:22:36;4.60;;;4.07;;
2618;SDS011;1319;52.346;13.096;2022-07-03T06:25:01;4.70;;;4.30;;
2618;SDS011;1319;52.346;13.096;2022-07-03T06:27:27;4.60;;;4.30;;
2618;SDS011;1319;52.346;13.096;2022-07-03T06:29:52;4.77;;;4.30;;
2618;SDS011;1319;52.346;13.096;2022-07-03T06:32:17;5.03;;;4.63;;
2618;SDS011;1319;52.346;13.096;2022-07-03T06:34:43;5.00;;;3.90;;
2618;SDS011;1319;52.346;13.096;2022-07-03T06:37:08;4.40;;;3.47;;
2618;SDS011;1319;52.346;13.096;2022-07-03T06:39:34;3.83;;;3.53;;
2618;SDS011;1319;52.346;13.096;2022-07-03T06:41:59;3.60;;;3.30;;
2618;SDS011;1319;52.346;13.096;2022-07-03T06:44:24;3.43;;;3.13;;
2618;SDS011;1319;52.346;13.096;2022-07-03T06:46:50;4.73;;;3.27;;
2618;SDS011;1319;52.346;13.096;2022-07-03T06:49:15;4.33;;;3.23;;
2618;SDS011;1319;52.346;13.096;2022-07-03T06:51:40;3.57;;;3.27;;
2618;SDS011;1319;52.346;13.096;2022-07-03T06:54:05;3.20;;;3.00;;
2618;SDS011;1319;52.346;13.096;2022-07-03T06:56:30;3.67;;;3.37;;
2618;SDS011;1319;52.346;13.096;2022-07-03T06:58:56;3.13;;;2.83;;
2618;SDS011;1319;52.346;13.096;2022-07-03T07:01:21;4.00;;;3.33;;
2618;SDS011;1319;52.346;13.096;2022-07-03T07:03:46;3.63;;;2.93;;
2618;SDS011;1319;52.346;13.096;2022-07-03T07:06:11;3.30;;;3.10;;
2618;SDS011;1319;52.346;13.096;2022-07-03T07:08:37;11.83;;;3.00;;
2618;SDS011;1319;52.346;13.096;2022-07-03T07:11:02;3.00;;;2.67;;
2618;SDS011;1319;52.346;13.096;2022-07-03T07:13:27;2.40;;;2.30;;
2618;SDS011;1319;52.346;13.096;2022-07-03T07:15:52;2.63;;;2.43;;
2618;SDS011;1319;52.346;13.096;2022-07-03T07:18:17;3.07;;;2.87;;
2618;SDS011;1319;52.346;13.096;2022-07-03T07:20:43;2.77;;;2.60;;
2618;SDS011;1319;52.346;13.096;2022-07-03T07:23:08;2.47;;;2.33;;
2618;SDS011;1319;52.346;13.096;2022-07-03T07:25:33;2.80;;;2.60;;
2618;SDS011;1319;52.346;13.096;2022-07-03T07:27:59;2.57;;;2.30;;
2618;SDS011;1319;52.346;13.096;2022-07-03T07:30:24;3.00;;;2.73;;
2618;SDS011;1319;52.346;13.096;2022-07-03T07:32:49;3.43;;;2.37;;
2618;SDS011;1319;52.346;13.096;2022-07-03T07:35:14;5.63;;;2.70;;
2618;SDS011;1319;52.346;13.096;2022-07-03T07:37:39;2.78;;;2.67;;
2618;SDS011;1319;52.346;13.096;2022-07-03T07:40:05;3.20;;;2.75;;
2618;SDS011;1319;52.346;13.096;2022-07-03T07:42:30;3.03;;;2.72;;
2618;SDS011;1319;52.346;13.096;2022-07-03T07:44:55;2.53;;;2.40;;
2618;SDS011;1319;52.346;13.096;2022-07-03T07:47:21;2.75;;;2.55;;
2618;SDS011;1319;52.346;13.096;2022-07-03T07:49:46;2.67;;;2.47;;
2618;SDS011;1319;52.346;13.096;2022-07-03T07:52:12;2.90;;;2.70;;
2618;SDS011;1319;52.346;13.096;2022-07-03T07:54:37;3.00;;;2.70;;
2618;SDS011;1319;52.346;13.096;2022-07-03T07:57:02;2.65;;;2.45;;
2618;SDS011;1319;52.346;13.096;2022-07-03T07:59:27;4.20;;;2.20;;
2618;SDS011;1319;52.346;13.096;2022-07-03T08:01:53;3.10;;;2.67;;
2618;SDS011;1319;52.346;13.096;2022-07-03T08:04:36;2.78;;;2.55;;
2618;SDS011;1319;52.346;13.096;2022-07-03T08:07:20;4.00;;;2.63;;
2618;SDS011;1319;52.346;13.096;2022-07-03T08:09:46;2.47;;;2.38;;
2618;SDS011;1319;52.346;13.096;2022-07-03T08:12:11;3.97;;;2.53;;
2618;SDS011;1319;52.346;13.096;2022-07-03T08:14:36;2.97;;;2.78;;
2618;SDS011;1319;52.346;13.096;2022-07-03T08:17:02;3.80;;;2.78;;
2618;SDS011;1319;52.346;13.096;2022-07-03T08:19:28;3.08;;;2.38;;
2618;SDS011;1319;52.346;13.096;2022-07-03T08:21:53;4.15;;;2.80;;
2618;SDS011;1319;52.346;13.096;2022-07-03T08:24:18;2.83;;;2.25;;
2618;SDS011;1319;52.346;13.096;2022-07-03T08:26:43;2.80;;;2.60;;
2618;SDS011;1319;52.346;13.096;2022-07-03T08:29:09;6.00;;;2.75;;
2618;SDS011;1319;52.346;13.096;2022-07-03T08:31:34;2.88;;;2.67;;
2618;SDS011;1319;52.346;13.096;2022-07-03T08:33:59;2.40;;;2.30;;
2618;SDS011;1319;52.346;13.096;2022-07-03T08:36:24;2.60;;;2.50;;
2618;SDS011;1319;52.346;13.096;2022-07-03T08:38:50;4.10;;;3.08;;
2618;SDS011;1319;52.346;13.096;2022-07-03T08:41:15;2.55;;;2.45;;
2618;SDS011;1319;52.346;13.096;2022-07-03T08:43:41;2.80;;;2.60;;
2618;SDS011;1319;52.346;13.096;2022-07-03T08:46:07;2.88;;;2.67;;
2618;SDS011;1319;52.346;13.096;2022-07-03T08:48:32;2.78;;;2.50;;
2618;SDS011;1319;52.346;13.096;2022-07-03T08:50:59;2.55;;;2.45;;
2618;SDS011;1319;52.346;13.096;2022-07-03T08:53:25;2.67;;;2.47;;
2618;SDS011;1319;52.346;13.096;2022-07-03T08:55:50;3.05;;;2.40;;
2618;SDS011;1319;52.346;13.096;2022-07-03T08:58:16;6.75;;;2.78;;
2618;SDS011;1319;52.346;13.096;2022-07-03T09:00:44;3.17;;;2.63;;
2618;SDS011;1319;52.346;13.096;2022-07-03T09:03:09;2.80;;;2.60;;
2618;SDS011;1319;52.346;13.096;2022-07-03T09:05:35;2.63;;;2.47;;
2618;SDS011;1319;52.346;13.096;2022-07-03T09:08:00;4.18;;;2.53;;
2618;SDS011;1319;52.346;13.096;2022-07-03T09:10:26;2.38;;;2.28;;
2618;SDS011;1319;52.346;13.096;2022-07-03T09:12:52;2.75;;;2.60;;
2618;SDS011;1319;52.346;13.096;2022-07-03T09:15:17;2.45;;;2.35;;
2618;SDS011;1319;52.346;13.096;2022-07-03T09:20:27;2.65;;;2.50;;
2618;SDS011;1319;52.346;13.096;2022-07-03T09:22:53;2.60;;;2.40;;
2618;SDS011;1319;52.346;13.096;2022-07-03T09:25:18;2.50;;;2.33;;
2618;SDS011;1319;52.346;13.096;2022-07-03T09:27:50;2.35;;;2.25;;
2618;SDS011;1319;52.346;13.096;2022-07-03T09:30:16;2.75;;;2.58;;
2618;SDS011;1319;52.346;13.096;2022-07-03T09:32:42;3.15;;;2.53;;
2618;SDS011;1319;52.346;13.096;2022-07-03T09:35:12;2.65;;;2.55;;
2618;SDS011;1319;52.346;13.096;2022-07-03T09:37:39;2.60;;;2.40;;
2618;SDS011;1319;52.346;13.096;2022-07-03T09:40:04;2.40;;;2.20;;
2618;SDS011;1319;52.346;13.096;2022-07-03T09:42:30;3.17;;;2.58;;
2618;SDS011;1319;52.346;13.096;2022-07-03T09:44:55;2.50;;;2.35;;
2618;SDS011;1319;52.346;13.096;2022-07-03T09:47:21;3.00;;;2.40;;
2618;SDS011;1319;52.346;13.096;2022-07-03T09:49:48;2.67;;;2.35;;
2618;SDS011;1319;52.346;13.096;2022-07-03T09:54:52;2.45;;;2.30;;
2618;SDS011;1319;52.346;13.096;2022-07-03T09:57:17;4.22;;;2.70;;
2618;SDS011;1319;52.346;13.096;2022-07-03T09:59:42;2.85;;;2.30;;
2618;SDS011;1319;52.346;13.096;2022-07-03T10:02:08;3.13;;;2.55;;
2618;SDS011;1319;52.346;13.096;2022-07-03T10:04:33;4.03;;;2.55;;
2618;SDS011;1319;52.346;13.096;2022-07-03T10:06:59;2.40;;;2.30;;
2618;SDS011;1319;52.346;13.096;2022-07-03T10:09:28;2.28;;;2.10;;
2618;SDS011;1319;52.346;13.096;2022-07-03T10:11:55;2.10;;;2.00;;
2618;SDS011;1319;52.346;13.096;2022-07-03T10:14:21;3.60;;;2.40;;
2618;SDS011;1319;52.346;13.096;2022-07-03T10:16:47;2.80;;;2.60;;
2618;SDS011;1319;52.346;13.096;2022-07-03T10:19:19;3.35;;;2.22;;
2618;SDS011;1319;52.346;13.096;2022-07-03T10:21:47;2.58;;;2.40;;
2618;SDS011;1319;52.346;13.096;2022-07-03T10:24:13;3.15;;;2.47;;
2618;SDS011;1319;52.346;13.096;2022-07-03T10:26:38;1.92;;;1.90;;
2618;SDS011;1319;52.346;13.096;2022-07-03T10:29:04;3.88;;;2.20;;
2618;SDS011;1319;52.346;13.096;2022-07-03T10:31:31;2.90;;;2.10;;
2618;SDS011;1319;52.346;13.096;2022-07-03T10:33:56;2.10;;;2.00;;
2618;SDS011;1319;52.346;13.096;2022-07-03T10:36:22;2.25;;;1.92;;
2618;SDS011;1319;52.346;13.096;2022-07-03T10:38:48;1.95;;;1.80;;
2618;SDS011;1319;52.346;13.096;2022-07-03T10:41:20;1.90;;;1.80;;
2618;SDS011;1319;52.346;13.096;2022-07-03T10:44:07;1.90;;;1.80;;
2618;SDS011;1319;52.346;13.096;2022-07-03T10:46:51;2.05;;;1.90;;
2618;SDS011;1319;52.346;13.096;2022-07-03T10:49:16;1.98;;;1.88;;
2618;SDS011;1319;52.346;13.096;2022-07-03T10:59:21;2.17;;;2.03;;
2618;SDS011;1319;52.346;13.096;2022-07-03T11:01:46;2.00;;;1.90;;
2618;SDS011;1319;52.346;13.096;2022-07-03T11:04:12;1.65;;;1.65;;
2618;SDS011;1319;52.346;13.096;2022-07-03T11:09:05;3.88;;;2.25;;
2618;SDS011;1319;52.346;13.096;2022-07-03T11:11:40;2.45;;;2.00;;
2618;SDS011;1319;52.346;13.096;2022-07-03T11:14:21;2.20;;;2.00;;
2618;SDS011;1319;52.346;13.096;2022-07-03T11:16:47;2.60;;;2.40;;
2618;SDS011;1319;52.346;13.096;2022-07-03T11:19:12;3.35;;;2.00;;
2618;SDS011;1319;52.346;13.096;2022-07-03T11:21:39;2.08;;;1.90;;
2618;SDS011;1319;52.346;13.096;2022-07-03T11:24:10;1.65;;;1.65;;
2618;SDS011;1319;52.346;13.096;2022-07-03T11:26:37;1.90;;;1.80;;
2618;SDS011;1319;52.346;13.096;2022-07-03T11:29:03;1.92;;;1.83;;
2618;SDS011;1319;52.346;13.096;2022-07-03T11:31:28;1.90;;;1.80;;
2618;SDS011;1319;52.346;13.096;2022-07-03T11:41:21;1.90;;;1.80;;
2618;SDS011;1319;52.346;13.096;2022-07-03T11:43:47;2.10;;;1.85;;
2618;SDS011;1319;52.346;13.096;2022-07-03T11:46:16;2.22;;;2.00;;
2618;SDS011;1319;52.346;13.096;2022-07-03T11:48:42;2.58;;;1.70;;
2618;SDS011;1319;52.346;13.096;2022-07-03T11:51:07;2.10;;;1.80;;
2618;SDS011;1319;52.346;13.096;2022-07-03T11:53:33;2.20;;;1.55;;
2618;SDS011;1319;52.346;13.096;2022-07-03T11:56:00;3.75;;;1.95;;
2618;SDS011;1319;52.346;13.096;2022-07-03T11:58:39;1.90;;;1.80;;
2618;SDS011;1319;52.346;13.096;2022-07-03T12:01:06;2.08;;;1.77;;
2618;SDS011;1319;52.346;13.096;2022-07-03T12:03:31;3.60;;;2.10;;
2618;SDS011;1319;52.346;13.096;2022-07-03T12:05:57;2.13;;;1.90;;
2618;SDS011;1319;52.346;13.096;2022-07-03T12:08:27;1.88;;;1.60;;
2618;SDS011;1319;52.346;13.096;2022-07-03T12:10:56;1.60;;;1.60;;
2618;SDS011;1319;52.346;13.096;2022-07-03T12:13:22;2.92;;;2.30;;
2618;SDS011;1319;52.346;13.096;2022-07-03T12:15:48;3.75;;;1.83;;
2618;SDS011;1319;52.346;13.096;2022-07-03T12:18:14;1.98;;;1.70;;
2618;SDS011;1319;52.346;13.096;2022-07-03T12:20:39;1.90;;;1.80;;
2618;SDS011;1319;52.346;13.096;2022-07-03T12:23:05;2.03;;;1.88;;
2618;SDS011;1319;52.346;13.096;2022-07-03T12:25:30;1.83;;;1.73;;
2618;SDS011;1319;52.346;13.096;2022-07-03T12:27:55;1.90;;;1.80;;
2618;SDS011;1319;52.346;13.096;2022-07-03T12:30:21;1.70;;;1.60;;
2618;SDS011;1319;52.346;13.096;2022-07-03T12:32:49;1.60;;;1.60;;
2618;SDS011;1319;52.346;13.096;2022-07-03T12:35:20;1.95;;;1.58;;
2618;SDS011;1319;52.346;13.096;2022-07-03T12:37:45;2.85;;;1.70;;
2618;SDS011;1319;52.346;13.096;2022-07-03T12:40:11;2.00;;;1.90;;
2618;SDS011;1319;52.346;13.096;2022-07-03T12:42:49;3.15;;;1.90;;
2618;SDS011;1319;52.346;13.096;2022-07-03T12:45:16;2.08;;;1.80;;
2618;SDS011;1319;52.346;13.096;2022-07-03T12:47:41;1.90;;;1.80;;
2618;SDS011;1319;52.346;13.096;2022-07-03T12:50:07;1.73;;;1.67;;
2618;SDS011;1319;52.346;13.096;2022-07-03T12:52:34;2.45;;;1.95;;
2618;SDS011;1319;52.346;13.096;2022-07-03T12:55:06;3.25;;;1.83;;
2618;SDS011;1319;52.346;13.096;2022-07-03T12:57:46;2.80;;;1.80;;
2618;SDS011;1319;52.346;13.096;2022-07-03T13:00:29;2.15;;;2.00;;
2618;SDS011;1319;52.346;13.096;2022-07-03T13:02:55;3.13;;;1.92;;
2618;SDS011;1319;52.346;13.096;2022-07-03T13:07:46;4.97;;;1.70;;
2618;SDS011;1319;52.346;13.096;2022-07-03T13:10:13;2.00;;;1.83;;
2618;SDS011;1319;52.346;13.096;2022-07-03T13:13:12;4.82;;;1.90;;
2618;SDS011;1319;52.346;13.096;2022-07-03T13:15:30;1.90;;;1.80;;
2618;SDS011;1319;52.346;13.096;2022-07-03T13:17:56;2.20;;;2.10;;
2618;SDS011;1319;52.346;13.096;2022-07-03T13:20:22;2.22;;;1.92;;
2618;SDS011;1319;52.346;13.096;2022-07-03T13:22:47;1.75;;;1.65;;
2618;SDS011;1319;52.346;13.096;2022-07-03T13:25:13;1.85;;;1.75;;
2618;SDS011;1319;52.346;13.096;2022-07-03T13:27:38;1.77;;;1.70;;
2618;SDS011;1319;52.346;13.096;2022-07-03T13:30:03;3.42;;;1.70;;
2618;SDS011;1319;52.346;13.096;2022-07-03T13:32:29;1.92;;;1.83;;
2618;SDS011;1319;52.346;13.096;2022-07-03T13:34:54;2.08;;;1.70;;
2618;SDS011;1319;52.346;13.096;2022-07-03T13:37:19;2.45;;;1.70;;
2618;SDS011;1319;52.346;13.096;2022-07-03T13:39:44;1.77;;;1.70;;
2618;SDS011;1319;52.346;13.096;2022-07-03T13:42:10;1.60;;;1.50;;
2618;SDS011;1319;52.346;13.096;2022-07-03T13:44:35;1.50;;;1.40;;
2618;SDS011;1319;52.346;13.096;2022-07-03T13:47:01;1.65;;;1.63;;
2618;SDS011;1319;52.346;13.096;2022-07-03T13:49:27;1.60;;;1.60;;
2618;SDS011;1319;52.346;13.096;2022-07-03T13:51:52;1.67;;;1.67;;
2618;SDS011;1319;52.346;13.096;2022-07-03T13:54:18;1.77;;;1.67;;
2618;SDS011;1319;52.346;13.096;2022-07-03T13:56:43;1.63;;;1.63;;
2618;SDS011;1319;52.346;13.096;2022-07-03T13:59:09;4.18;;;1.70;;
2618;SDS011;1319;52.346;13.096;2022-07-03T14:01:34;3.10;;;1.90;;
2618;SDS011;1319;52.346;13.096;2022-07-03T14:03:59;1.80;;;1.70;;
2618;SDS011;1319;52.346;13.096;2022-07-03T14:06:24;3.70;;;1.92;;
2618;SDS011;1319;52.346;13.096;2022-07-03T14:08:50;1.70;;;1.60;;
2618;SDS011;1319;52.346;13.096;2022-07-03T14:11:15;2.13;;;1.60;;
2618;SDS011;1319;52.346;13.096;2022-07-03T14:13:40;1.60;;;1.60;;
2618;SDS011;1319;52.346;13.096;2022-07-03T14:16:05;1.75;;;1.65;;
2618;SDS011;1319;52.346;13.096;2022-07-03T14:18:31;1.85;;;1.75;;
2618;SDS011;1319;52.346;13.096;2022-07-03T14:20:56;1.77;;;1.77;;
2618;SDS011;1319;52.346;13.096;2022-07-03T14:23:21;2.00;;;1.83;;
2618;SDS011;1319;52.346;13.096;2022-07-03T14:25:46;1.60;;;1.60;;
2618;SDS011;1319;52.346;13.096;2022-07-03T14:28:12;1.90;;;1.80;;
2618;SDS011;1319;52.346;13.096;2022-07-03T14:30:55;2.10;;;2.00;;
2618;SDS011;1319;52.346;13.096;2022-07-03T14:33:39;1.73;;;1.63;;
2618;SDS011;1319;52.346;13.096;2022-07-03T14:36:05;2.03;;;1.85;;
2618;SDS011;1319;52.346;13.096;2022-07-03T14:38:30;1.60;;;1.60;;
2618;SDS011;1319;52.346;13.096;2022-07-03T14:40:55;1.80;;;1.70;;
2618;SDS011;1319;52.346;13.096;2022-07-03T14:43:20;1.95;;;1.80;;
2618;SDS011;1319;52.346;13.096;2022-07-03T14:45:46;1.83;;;1.58;;
2618;SDS011;1319;52.346;13.096;2022-07-03T14:48:11;1.65;;;1.55;;
2618;SDS011;1319;52.346;13.096;2022-07-03T14:50:36;1.70;;;1.70;;
2618;SDS011;1319;52.346;13.096;2022-07-03T14:53:02;2.10;;;1.80;;
2618;SDS011;1319;52.346;13.096;2022-07-03T14:55:29;2.25;;;1.80;;
2618;SDS011;1319;52.346;13.096;2022-07-03T14:57:59;2.10;;;1.80;;
2618;SDS011;1319;52.346;13.096;2022-07-03T15:00:28;4.78;;;1.88;;
2618;SDS011;1319;52.346;13.096;2022-07-03T15:05:22;2.45;;;1.88;;
2618;SDS011;1319;52.346;13.096;2022-07-03T15:07:54;3.55;;;1.77;;
2618;SDS011;1319;52.346;13.096;2022-07-03T15:10:23;3.45;;;1.67;;
2618;SDS011;1319;52.346;13.096;2022-07-03T15:12:53;1.73;;;1.67;;
2618;SDS011;1319;52.346;13.096;2022-07-03T15:15:19;1.90;;;1.80;;
2618;SDS011;1319;52.346;13.096;2022-07-03T15:17:48;2.05;;;1.92;;
2618;SDS011;1319;52.346;13.096;2022-07-03T15:20:14;8.05;;;6.63;;
2618;SDS011;1319;52.346;13.096;2022-07-03T15:22:42;3.40;;;2.15;;
2618;SDS011;1319;52.346;13.096;2022-07-03T15:25:08;1.90;;;1.80;;
2618;SDS011;1319;52.346;13.096;2022-07-03T15:27:34;1.65;;;1.65;;
2618;SDS011;1319;52.346;13.096;2022-07-03T15:29:59;3.35;;;1.85;;
2618;SDS011;1319;52.346;13.096;2022-07-03T15:32:25;2.05;;;1.80;;
2618;SDS011;1319;52.346;13.096;2022-07-03T15:34:50;4.30;;;1.90;;
2618;SDS011;1319;52.346;13.096;2022-07-03T15:39:48;1.77;;;1.67;;
2618;SDS011;1319;52.346;13.096;2022-07-03T15:47:46;2.20;;;1.65;;
2618;SDS011;1319;52.346;13.096;2022-07-03T15:50:38;3.63;;;3.33;;
2618;SDS011;1319;52.346;13.096;2022-07-03T15:53:00;4.50;;;3.75;;
2618;SDS011;1319;52.346;13.096;2022-07-03T15:55:25;3.22;;;2.45;;